Terminal Aerodrome Forecast
Issued by NWS Cleveland, OH

Home | Current Version | Previous Version | Text Only | Print | Product List | Glossary Off
Versions: 1 2 3 4 5 6 7 8 9 10 11 12 13 14 15 16 17 18 19 20

000
FTUS41 KCLE 310543
TAFERI
TAF
KERI 310543Z 3106/0106 02006KT 4SM -SHRA BR BKN025CB OVC100
      TEMPO 3106/3110 2SM -SHRA BR OVC008
     FM311000 03012KT 4SM -SHRA BR OVC007
     FM311500 05015G25KT 2SM -SHRA BR OVC007
     FM311800 06020G30KT 2SM RA OVC005=

USA.gov is the U.S. government's official web portal to all federal, state and local government web resources and services.